sensor_id;sensor_type;location;lat;lon;timestamp;P1;durP1;ratioP1;P2;durP2;ratioP2
74309;SDS011;62722;51.142;17.052;2022-12-18T00:00:59;23.85;;;8.13;;
74309;SDS011;62722;51.142;17.052;2022-12-18T00:03:42;22.27;;;9.15;;
74309;SDS011;62722;51.142;17.052;2022-12-18T00:06:10;26.83;;;10.07;;
74309;SDS011;62722;51.142;17.052;2022-12-18T00:08:42;30.10;;;10.02;;
74309;SDS011;62722;51.142;17.052;2022-12-18T00:11:13;30.25;;;9.40;;
74309;SDS011;62722;51.142;17.052;2022-12-18T00:13:41;22.33;;;8.20;;
74309;SDS011;62722;51.142;17.052;2022-12-18T00:16:10;23.00;;;7.13;;
74309;SDS011;62722;51.142;17.052;2022-12-18T00:18:39;21.52;;;8.43;;
74309;SDS011;62722;51.142;17.052;2022-12-18T00:21:08;24.30;;;8.23;;
74309;SDS011;62722;51.142;17.052;2022-12-18T00:23:36;26.75;;;8.50;;
74309;SDS011;62722;51.142;17.052;2022-12-18T00:26:09;24.20;;;8.75;;
74309;SDS011;62722;51.142;17.052;2022-12-18T00:28:42;21.52;;;7.32;;
74309;SDS011;62722;51.142;17.052;2022-12-18T00:31:12;29.83;;;8.75;;
74309;SDS011;62722;51.142;17.052;2022-12-18T00:33:43;25.58;;;7.72;;
74309;SDS011;62722;51.142;17.052;2022-12-18T00:36:13;26.60;;;8.02;;
74309;SDS011;62722;51.142;17.052;2022-12-18T00:38:43;26.38;;;7.80;;
74309;SDS011;62722;51.142;17.052;2022-12-18T00:41:13;25.80;;;8.02;;
74309;SDS011;62722;51.142;17.052;2022-12-18T00:44:03;29.38;;;8.98;;
74309;SDS011;62722;51.142;17.052;2022-12-18T00:46:32;28.27;;;8.30;;
74309;SDS011;62722;51.142;17.052;2022-12-18T00:49:00;26.02;;;8.10;;
74309;SDS011;62722;51.142;17.052;2022-12-18T00:51:29;26.40;;;8.18;;
74309;SDS011;62722;51.142;17.052;2022-12-18T00:53:56;25.70;;;8.52;;
74309;SDS011;62722;51.142;17.052;2022-12-18T00:56:25;33.10;;;9.45;;
74309;SDS011;62722;51.142;17.052;2022-12-18T00:58:52;27.95;;;7.93;;
74309;SDS011;62722;51.142;17.052;2022-12-18T01:01:20;24.23;;;7.82;;
74309;SDS011;62722;51.142;17.052;2022-12-18T01:03:47;21.35;;;8.40;;
74309;SDS011;62722;51.142;17.052;2022-12-18T01:06:15;24.15;;;7.22;;
74309;SDS011;62722;51.142;17.052;2022-12-18T01:08:43;34.60;;;8.95;;
74309;SDS011;62722;51.142;17.052;2022-12-18T01:11:11;22.80;;;7.20;;
74309;SDS011;62722;51.142;17.052;2022-12-18T01:13:41;27.23;;;9.00;;
74309;SDS011;62722;51.142;17.052;2022-12-18T01:16:10;25.55;;;7.95;;
74309;SDS011;62722;51.142;17.052;2022-12-18T01:18:38;24.25;;;7.60;;
74309;SDS011;62722;51.142;17.052;2022-12-18T01:21:06;31.30;;;8.75;;
74309;SDS011;62722;51.142;17.052;2022-12-18T01:23:35;28.80;;;8.82;;
74309;SDS011;62722;51.142;17.052;2022-12-18T01:26:04;28.63;;;10.32;;
74309;SDS011;62722;51.142;17.052;2022-12-18T01:28:32;31.10;;;9.80;;
74309;SDS011;62722;51.142;17.052;2022-12-18T01:31:10;35.22;;;10.27;;
74309;SDS011;62722;51.142;17.052;2022-12-18T01:33:39;31.42;;;10.98;;
74309;SDS011;62722;51.142;17.052;2022-12-18T01:36:07;24.20;;;8.52;;
74309;SDS011;62722;51.142;17.052;2022-12-18T01:38:35;26.10;;;9.10;;
74309;SDS011;62722;51.142;17.052;2022-12-18T01:41:02;24.02;;;8.35;;
74309;SDS011;62722;51.142;17.052;2022-12-18T01:43:46;25.83;;;7.90;;
74309;SDS011;62722;51.142;17.052;2022-12-18T01:46:18;24.50;;;8.07;;
74309;SDS011;62722;51.142;17.052;2022-12-18T01:48:48;27.90;;;7.53;;
74309;SDS011;62722;51.142;17.052;2022-12-18T01:51:18;27.63;;;7.47;;
74309;SDS011;62722;51.142;17.052;2022-12-18T01:53:46;25.90;;;8.30;;
74309;SDS011;62722;51.142;17.052;2022-12-18T01:56:15;18.65;;;6.80;;
74309;SDS011;62722;51.142;17.052;2022-12-18T01:58:46;19.80;;;6.88;;
74309;SDS011;62722;51.142;17.052;2022-12-18T02:01:20;23.08;;;6.43;;
74309;SDS011;62722;51.142;17.052;2022-12-18T02:03:49;25.10;;;8.45;;
74309;SDS011;62722;51.142;17.052;2022-12-18T02:06:18;25.55;;;7.57;;
74309;SDS011;62722;51.142;17.052;2022-12-18T02:08:54;24.85;;;7.55;;
74309;SDS011;62722;51.142;17.052;2022-12-18T02:11:36;22.48;;;7.22;;
74309;SDS011;62722;51.142;17.052;2022-12-18T02:14:12;26.33;;;7.85;;
74309;SDS011;62722;51.142;17.052;2022-12-18T02:16:49;21.23;;;7.07;;
74309;SDS011;62722;51.142;17.052;2022-12-18T02:19:24;22.70;;;6.47;;
74309;SDS011;62722;51.142;17.052;2022-12-18T02:22:07;19.30;;;7.32;;
74309;SDS011;62722;51.142;17.052;2022-12-18T02:24:47;22.23;;;6.85;;
74309;SDS011;62722;51.142;17.052;2022-12-18T02:27:26;22.17;;;8.05;;
74309;SDS011;62722;51.142;17.052;2022-12-18T02:29:55;23.33;;;7.05;;
74309;SDS011;62722;51.142;17.052;2022-12-18T02:32:27;23.90;;;7.82;;
74309;SDS011;62722;51.142;17.052;2022-12-18T02:34:59;28.90;;;7.20;;
74309;SDS011;62722;51.142;17.052;2022-12-18T02:37:29;23.58;;;7.18;;
74309;SDS011;62722;51.142;17.052;2022-12-18T02:39:58;23.77;;;6.57;;
74309;SDS011;62722;51.142;17.052;2022-12-18T02:42:28;16.52;;;6.55;;
74309;SDS011;62722;51.142;17.052;2022-12-18T02:44:56;23.35;;;7.30;;
74309;SDS011;62722;51.142;17.052;2022-12-18T02:47:24;23.20;;;7.78;;
74309;SDS011;62722;51.142;17.052;2022-12-18T02:49:57;22.25;;;7.38;;
74309;SDS011;62722;51.142;17.052;2022-12-18T02:52:34;26.27;;;7.20;;
74309;SDS011;62722;51.142;17.052;2022-12-18T02:55:18;20.52;;;5.82;;
74309;SDS011;62722;51.142;17.052;2022-12-18T02:57:57;21.90;;;7.40;;
74309;SDS011;62722;51.142;17.052;2022-12-18T03:00:31;26.35;;;8.25;;
74309;SDS011;62722;51.142;17.052;2022-12-18T03:03:05;22.73;;;7.35;;
74309;SDS011;62722;51.142;17.052;2022-12-18T03:05:38;16.10;;;6.70;;
74309;SDS011;62722;51.142;17.052;2022-12-18T03:08:12;23.13;;;6.75;;
74309;SDS011;62722;51.142;17.052;2022-12-18T03:10:45;17.00;;;6.13;;
74309;SDS011;62722;51.142;17.052;2022-12-18T03:13:19;24.40;;;8.20;;
74309;SDS011;62722;51.142;17.052;2022-12-18T03:15:52;23.60;;;7.47;;
74309;SDS011;62722;51.142;17.052;2022-12-18T03:18:23;22.65;;;7.45;;
74309;SDS011;62722;51.142;17.052;2022-12-18T03:20:54;18.90;;;6.60;;
74309;SDS011;62722;51.142;17.052;2022-12-18T03:23:29;22.50;;;8.10;;
74309;SDS011;62722;51.142;17.052;2022-12-18T03:26:04;22.48;;;6.55;;
74309;SDS011;62722;51.142;17.052;2022-12-18T03:28:38;22.48;;;7.80;;
74309;SDS011;62722;51.142;17.052;2022-12-18T03:31:12;19.55;;;8.05;;
74309;SDS011;62722;51.142;17.052;2022-12-18T03:33:41;29.63;;;8.48;;
74309;SDS011;62722;51.142;17.052;2022-12-18T03:36:11;25.02;;;7.93;;
74309;SDS011;62722;51.142;17.052;2022-12-18T03:38:38;19.38;;;7.38;;
74309;SDS011;62722;51.142;17.052;2022-12-18T03:41:07;22.98;;;7.28;;
74309;SDS011;62722;51.142;17.052;2022-12-18T03:43:45;25.65;;;7.85;;
74309;SDS011;62722;51.142;17.052;2022-12-18T03:46:20;27.92;;;8.50;;
74309;SDS011;62722;51.142;17.052;2022-12-18T03:48:56;23.67;;;7.60;;
74309;SDS011;62722;51.142;17.052;2022-12-18T03:51:29;25.85;;;8.00;;
74309;SDS011;62722;51.142;17.052;2022-12-18T03:54:04;24.77;;;7.88;;
74309;SDS011;62722;51.142;17.052;2022-12-18T03:56:36;25.42;;;7.80;;
74309;SDS011;62722;51.142;17.052;2022-12-18T03:59:08;21.00;;;7.53;;
74309;SDS011;62722;51.142;17.052;2022-12-18T04:01:39;23.42;;;8.15;;
74309;SDS011;62722;51.142;17.052;2022-12-18T04:04:10;17.20;;;6.55;;
74309;SDS011;62722;51.142;17.052;2022-12-18T04:06:39;30.60;;;8.90;;
74309;SDS011;62722;51.142;17.052;2022-12-18T04:09:09;22.90;;;7.57;;
74309;SDS011;62722;51.142;17.052;2022-12-18T04:11:36;27.63;;;8.13;;
74309;SDS011;62722;51.142;17.052;2022-12-18T04:14:03;28.33;;;7.85;;
74309;SDS011;62722;51.142;17.052;2022-12-18T04:16:32;20.20;;;7.43;;
74309;SDS011;62722;51.142;17.052;2022-12-18T04:19:00;17.38;;;7.88;;
74309;SDS011;62722;51.142;17.052;2022-12-18T04:21:27;23.55;;;7.53;;
74309;SDS011;62722;51.142;17.052;2022-12-18T04:23:54;24.67;;;9.05;;
74309;SDS011;62722;51.142;17.052;2022-12-18T04:26:21;22.23;;;7.32;;
74309;SDS011;62722;51.142;17.052;2022-12-18T04:28:49;27.17;;;8.38;;
74309;SDS011;62722;51.142;17.052;2022-12-18T04:31:16;21.52;;;8.23;;
74309;SDS011;62722;51.142;17.052;2022-12-18T04:33:45;25.30;;;8.75;;
74309;SDS011;62722;51.142;17.052;2022-12-18T04:36:12;21.98;;;7.72;;
74309;SDS011;62722;51.142;17.052;2022-12-18T04:38:39;21.02;;;8.02;;
74309;SDS011;62722;51.142;17.052;2022-12-18T04:41:06;23.35;;;8.48;;
74309;SDS011;62722;51.142;17.052;2022-12-18T04:43:34;32.17;;;12.05;;
74309;SDS011;62722;51.142;17.052;2022-12-18T04:46:01;60.53;;;23.45;;
74309;SDS011;62722;51.142;17.052;2022-12-18T04:48:29;45.22;;;15.05;;
74309;SDS011;62722;51.142;17.052;2022-12-18T04:50:57;66.53;;;25.88;;
74309;SDS011;62722;51.142;17.052;2022-12-18T04:53:25;98.13;;;39.03;;
74309;SDS011;62722;51.142;17.052;2022-12-18T04:56:01;48.17;;;16.20;;
74309;SDS011;62722;51.142;17.052;2022-12-18T04:58:29;41.40;;;16.55;;
74309;SDS011;62722;51.142;17.052;2022-12-18T05:00:57;38.38;;;12.57;;
74309;SDS011;62722;51.142;17.052;2022-12-18T05:03:24;28.13;;;9.43;;
74309;SDS011;62722;51.142;17.052;2022-12-18T05:05:51;24.83;;;7.63;;
74309;SDS011;62722;51.142;17.052;2022-12-18T05:08:20;23.83;;;7.93;;
74309;SDS011;62722;51.142;17.052;2022-12-18T05:10:47;24.20;;;8.88;;
74309;SDS011;62722;51.142;17.052;2022-12-18T05:13:15;20.35;;;7.75;;
74309;SDS011;62722;51.142;17.052;2022-12-18T05:15:42;35.42;;;11.43;;
74309;SDS011;62722;51.142;17.052;2022-12-18T05:18:19;23.48;;;8.23;;
74309;SDS011;62722;51.142;17.052;2022-12-18T05:20:47;18.15;;;7.22;;
74309;SDS011;62722;51.142;17.052;2022-12-18T05:23:16;24.70;;;7.53;;
74309;SDS011;62722;51.142;17.052;2022-12-18T05:25:47;30.13;;;9.35;;
74309;SDS011;62722;51.142;17.052;2022-12-18T05:28:18;21.73;;;8.05;;
74309;SDS011;62722;51.142;17.052;2022-12-18T05:30:47;23.90;;;8.07;;
74309;SDS011;62722;51.142;17.052;2022-12-18T05:33:17;25.98;;;8.02;;
74309;SDS011;62722;51.142;17.052;2022-12-18T05:35:44;23.95;;;8.40;;
74309;SDS011;62722;51.142;17.052;2022-12-18T05:40:43;25.25;;;9.55;;
74309;SDS011;62722;51.142;17.052;2022-12-18T05:43:12;20.10;;;7.53;;
74309;SDS011;62722;51.142;17.052;2022-12-18T05:45:39;25.60;;;8.30;;
74309;SDS011;62722;51.142;17.052;2022-12-18T05:48:07;22.67;;;7.90;;
74309;SDS011;62722;51.142;17.052;2022-12-18T05:50:35;25.75;;;8.50;;
74309;SDS011;62722;51.142;17.052;2022-12-18T05:53:02;22.95;;;7.70;;
74309;SDS011;62722;51.142;17.052;2022-12-18T05:55:32;23.85;;;8.18;;
74309;SDS011;62722;51.142;17.052;2022-12-18T05:58:00;26.40;;;8.55;;
74309;SDS011;62722;51.142;17.052;2022-12-18T06:00:29;21.98;;;8.13;;
74309;SDS011;62722;51.142;17.052;2022-12-18T06:02:57;23.27;;;7.82;;
74309;SDS011;62722;51.142;17.052;2022-12-18T06:05:25;22.65;;;7.40;;
74309;SDS011;62722;51.142;17.052;2022-12-18T06:07:53;24.42;;;7.90;;
74309;SDS011;62722;51.142;17.052;2022-12-18T06:10:20;24.33;;;7.78;;
74309;SDS011;62722;51.142;17.052;2022-12-18T06:12:48;20.45;;;8.07;;
74309;SDS011;62722;51.142;17.052;2022-12-18T06:15:15;25.00;;;7.88;;
74309;SDS011;62722;51.142;17.052;2022-12-18T06:17:43;23.98;;;7.50;;
74309;SDS011;62722;51.142;17.052;2022-12-18T06:20:10;23.98;;;7.47;;
74309;SDS011;62722;51.142;17.052;2022-12-18T06:22:38;21.95;;;8.48;;
74309;SDS011;62722;51.142;17.052;2022-12-18T06:25:05;24.20;;;9.00;;
74309;SDS011;62722;51.142;17.052;2022-12-18T06:27:33;19.48;;;8.10;;
74309;SDS011;62722;51.142;17.052;2022-12-18T06:30:00;23.27;;;8.15;;
74309;SDS011;62722;51.142;17.052;2022-12-18T06:32:28;23.40;;;9.00;;
74309;SDS011;62722;51.142;17.052;2022-12-18T06:34:57;23.02;;;9.55;;
74309;SDS011;62722;51.142;17.052;2022-12-18T06:37:24;26.55;;;8.32;;
74309;SDS011;62722;51.142;17.052;2022-12-18T06:39:51;22.40;;;9.20;;
74309;SDS011;62722;51.142;17.052;2022-12-18T06:42:19;22.75;;;9.88;;
74309;SDS011;62722;51.142;17.052;2022-12-18T06:44:46;27.80;;;8.75;;
74309;SDS011;62722;51.142;17.052;2022-12-18T06:47:13;28.33;;;9.27;;
74309;SDS011;62722;51.142;17.052;2022-12-18T06:49:40;26.75;;;8.90;;
74309;SDS011;62722;51.142;17.052;2022-12-18T06:52:09;28.15;;;9.60;;
74309;SDS011;62722;51.142;17.052;2022-12-18T06:54:36;24.58;;;9.38;;
74309;SDS011;62722;51.142;17.052;2022-12-18T06:57:03;26.63;;;9.45;;
74309;SDS011;62722;51.142;17.052;2022-12-18T06:59:31;30.50;;;10.20;;
74309;SDS011;62722;51.142;17.052;2022-12-18T07:01:58;26.83;;;9.77;;
74309;SDS011;62722;51.142;17.052;2022-12-18T07:04:27;31.67;;;11.10;;
74309;SDS011;62722;51.142;17.052;2022-12-18T07:06:55;31.35;;;10.43;;
74309;SDS011;62722;51.142;17.052;2022-12-18T07:09:24;29.73;;;10.30;;
74309;SDS011;62722;51.142;17.052;2022-12-18T07:11:51;29.83;;;9.45;;
74309;SDS011;62722;51.142;17.052;2022-12-18T07:14:18;27.33;;;11.23;;
74309;SDS011;62722;51.142;17.052;2022-12-18T07:16:46;33.38;;;11.18;;
74309;SDS011;62722;51.142;17.052;2022-12-18T07:19:13;29.50;;;10.52;;
74309;SDS011;62722;51.142;17.052;2022-12-18T07:21:40;31.08;;;12.13;;
74309;SDS011;62722;51.142;17.052;2022-12-18T07:24:07;34.22;;;11.70;;
74309;SDS011;62722;51.142;17.052;2022-12-18T07:26:36;24.85;;;9.52;;
74309;SDS011;62722;51.142;17.052;2022-12-18T07:29:04;29.45;;;9.88;;
74309;SDS011;62722;51.142;17.052;2022-12-18T07:31:31;28.38;;;9.68;;
74309;SDS011;62722;51.142;17.052;2022-12-18T07:33:58;27.38;;;10.65;;
74309;SDS011;62722;51.142;17.052;2022-12-18T07:36:26;29.40;;;10.02;;
74309;SDS011;62722;51.142;17.052;2022-12-18T07:38:53;30.73;;;11.57;;
74309;SDS011;62722;51.142;17.052;2022-12-18T07:41:20;37.78;;;11.80;;
74309;SDS011;62722;51.142;17.052;2022-12-18T07:43:49;31.95;;;10.82;;
74309;SDS011;62722;51.142;17.052;2022-12-18T07:46:17;34.97;;;12.63;;
74309;SDS011;62722;51.142;17.052;2022-12-18T07:48:45;29.83;;;10.55;;
74309;SDS011;62722;51.142;17.052;2022-12-18T07:51:12;39.25;;;11.65;;
74309;SDS011;62722;51.142;17.052;2022-12-18T07:53:40;35.67;;;12.30;;
74309;SDS011;62722;51.142;17.052;2022-12-18T07:56:08;38.85;;;13.70;;
74309;SDS011;62722;51.142;17.052;2022-12-18T07:58:37;37.85;;;13.00;;
74309;SDS011;62722;51.142;17.052;2022-12-18T08:01:07;39.65;;;13.52;;
74309;SDS011;62722;51.142;17.052;2022-12-18T08:03:36;45.70;;;14.00;;
74309;SDS011;62722;51.142;17.052;2022-12-18T08:06:05;48.05;;;14.68;;
74309;SDS011;62722;51.142;17.052;2022-12-18T08:08:34;45.67;;;14.27;;
74309;SDS011;62722;51.142;17.052;2022-12-18T08:11:02;33.10;;;12.68;;
74309;SDS011;62722;51.142;17.052;2022-12-18T08:13:29;40.00;;;12.90;;
74309;SDS011;62722;51.142;17.052;2022-12-18T08:15:57;33.08;;;10.48;;
74309;SDS011;62722;51.142;17.052;2022-12-18T08:18:26;35.25;;;12.55;;
74309;SDS011;62722;51.142;17.052;2022-12-18T08:20:54;29.08;;;12.05;;
74309;SDS011;62722;51.142;17.052;2022-12-18T08:23:21;36.95;;;12.80;;
74309;SDS011;62722;51.142;17.052;2022-12-18T08:25:49;27.58;;;10.77;;
74309;SDS011;62722;51.142;17.052;2022-12-18T08:28:16;29.27;;;10.45;;
74309;SDS011;62722;51.142;17.052;2022-12-18T08:30:44;30.10;;;10.30;;
74309;SDS011;62722;51.142;17.052;2022-12-18T08:33:11;36.50;;;11.50;;
74309;SDS011;62722;51.142;17.052;2022-12-18T08:35:42;25.35;;;8.55;;
74309;SDS011;62722;51.142;17.052;2022-12-18T08:38:09;27.85;;;10.07;;
74309;SDS011;62722;51.142;17.052;2022-12-18T08:40:36;24.02;;;7.90;;
74309;SDS011;62722;51.142;17.052;2022-12-18T08:43:04;23.77;;;8.38;;
74309;SDS011;62722;51.142;17.052;2022-12-18T08:45:48;26.27;;;10.32;;
74309;SDS011;62722;51.142;17.052;2022-12-18T08:48:15;23.10;;;8.95;;
74309;SDS011;62722;51.142;17.052;2022-12-18T08:50:48;22.77;;;8.95;;
74309;SDS011;62722;51.142;17.052;2022-12-18T08:53:20;25.08;;;9.77;;
74309;SDS011;62722;51.142;17.052;2022-12-18T08:55:48;24.00;;;8.90;;
74309;SDS011;62722;51.142;17.052;2022-12-18T08:58:15;23.85;;;8.98;;
74309;SDS011;62722;51.142;17.052;2022-12-18T09:00:42;25.42;;;10.18;;
74309;SDS011;62722;51.142;17.052;2022-12-18T09:03:10;27.30;;;10.18;;
74309;SDS011;62722;51.142;17.052;2022-12-18T09:05:38;26.92;;;10.27;;
74309;SDS011;62722;51.142;17.052;2022-12-18T09:08:07;32.47;;;11.20;;
74309;SDS011;62722;51.142;17.052;2022-12-18T09:10:40;30.05;;;10.05;;
74309;SDS011;62722;51.142;17.052;2022-12-18T09:13:09;26.20;;;10.57;;
74309;SDS011;62722;51.142;17.052;2022-12-18T09:15:40;23.33;;;9.27;;
74309;SDS011;62722;51.142;17.052;2022-12-18T09:18:09;25.20;;;9.80;;
74309;SDS011;62722;51.142;17.052;2022-12-18T09:20:37;27.83;;;9.60;;
74309;SDS011;62722;51.142;17.052;2022-12-18T09:23:04;28.95;;;10.48;;
74309;SDS011;62722;51.142;17.052;2022-12-18T09:25:34;28.20;;;10.55;;
74309;SDS011;62722;51.142;17.052;2022-12-18T09:28:02;20.63;;;8.27;;
74309;SDS011;62722;51.142;17.052;2022-12-18T09:30:33;27.40;;;9.05;;
74309;SDS011;62722;51.142;17.052;2022-12-18T09:33:03;28.00;;;10.65;;
74309;SDS011;62722;51.142;17.052;2022-12-18T09:35:31;23.73;;;9.13;;
74309;SDS011;62722;51.142;17.052;2022-12-18T09:37:59;30.63;;;10.38;;
74309;SDS011;62722;51.142;17.052;2022-12-18T09:40:28;24.27;;;9.25;;
74309;SDS011;62722;51.142;17.052;2022-12-18T09:43:03;25.77;;;9.70;;
74309;SDS011;62722;51.142;17.052;2022-12-18T09:45:35;28.52;;;9.07;;
74309;SDS011;62722;51.142;17.052;2022-12-18T09:48:08;28.00;;;10.10;;
74309;SDS011;62722;51.142;17.052;2022-12-18T09:50:43;24.17;;;8.75;;
74309;SDS011;62722;51.142;17.052;2022-12-18T09:53:12;26.00;;;9.10;;
74309;SDS011;62722;51.142;17.052;2022-12-18T09:55:45;28.40;;;8.15;;
74309;SDS011;62722;51.142;17.052;2022-12-18T09:58:15;30.20;;;11.10;;
74309;SDS011;62722;51.142;17.052;2022-12-18T10:00:46;30.38;;;10.25;;
74309;SDS011;62722;51.142;17.052;2022-12-18T10:03:14;22.65;;;9.60;;
74309;SDS011;62722;51.142;17.052;2022-12-18T10:05:43;23.67;;;9.30;;
74309;SDS011;62722;51.142;17.052;2022-12-18T10:08:23;25.45;;;9.02;;
74309;SDS011;62722;51.142;17.052;2022-12-18T10:11:01;28.25;;;9.88;;
74309;SDS011;62722;51.142;17.052;2022-12-18T10:13:41;24.10;;;9.15;;
74309;SDS011;62722;51.142;17.052;2022-12-18T10:16:12;27.15;;;8.93;;
74309;SDS011;62722;51.142;17.052;2022-12-18T10:21:45;31.58;;;9.43;;
74309;SDS011;62722;51.142;17.052;2022-12-18T10:24:20;24.65;;;9.57;;
74309;SDS011;62722;51.142;17.052;2022-12-18T10:26:59;19.85;;;9.43;;
74309;SDS011;62722;51.142;17.052;2022-12-18T10:29:39;24.65;;;9.55;;
74309;SDS011;62722;51.142;17.052;2022-12-18T10:32:07;26.70;;;8.88;;
74309;SDS011;62722;51.142;17.052;2022-12-18T10:34:39;26.70;;;8.80;;
74309;SDS011;62722;51.142;17.052;2022-12-18T10:37:09;30.90;;;10.50;;
74309;SDS011;62722;51.142;17.052;2022-12-18T10:39:42;27.80;;;10.68;;
74309;SDS011;62722;51.142;17.052;2022-12-18T10:42:11;27.65;;;10.50;;
74309;SDS011;62722;51.142;17.052;2022-12-18T10:44:44;26.88;;;9.45;;
74309;SDS011;62722;51.142;17.052;2022-12-18T10:47:14;32.00;;;10.45;;
74309;SDS011;62722;51.142;17.052;2022-12-18T10:52:16;26.20;;;10.82;;
74309;SDS011;62722;51.142;17.052;2022-12-18T10:54:46;26.73;;;10.25;;
74309;SDS011;62722;51.142;17.052;2022-12-18T10:57:29;30.27;;;11.35;;
74309;SDS011;62722;51.142;17.052;2022-12-18T11:00:03;24.67;;;10.65;;
74309;SDS011;62722;51.142;17.052;2022-12-18T11:02:49;30.15;;;10.48;;
74309;SDS011;62722;51.142;17.052;2022-12-18T11:05:26;29.58;;;10.40;;
74309;SDS011;62722;51.142;17.052;2022-12-18T11:07:56;26.75;;;9.95;;
74309;SDS011;62722;51.142;17.052;2022-12-18T11:10:26;28.95;;;9.35;;
74309;SDS011;62722;51.142;17.052;2022-12-18T11:13:10;31.23;;;10.70;;
74309;SDS011;62722;51.142;17.052;2022-12-18T11:15:41;32.80;;;11.40;;
74309;SDS011;62722;51.142;17.052;2022-12-18T11:18:15;33.95;;;10.88;;
74309;SDS011;62722;51.142;17.052;2022-12-18T11:20:49;33.88;;;11.65;;
74309;SDS011;62722;51.142;17.052;2022-12-18T11:23:19;30.95;;;11.18;;
74309;SDS011;62722;51.142;17.052;2022-12-18T11:25:53;32.63;;;12.10;;
74309;SDS011;62722;51.142;17.052;2022-12-18T11:28:35;34.90;;;11.48;;
74309;SDS011;62722;51.142;17.052;2022-12-18T11:31:22;33.15;;;12.43;;
74309;SDS011;62722;51.142;17.052;2022-12-18T11:33:58;33.80;;;12.20;;
74309;SDS011;62722;51.142;17.052;2022-12-18T11:36:31;32.17;;;10.88;;
74309;SDS011;62722;51.142;17.052;2022-12-18T11:39:17;41.33;;;11.90;;
74309;SDS011;62722;51.142;17.052;2022-12-18T11:41:49;34.00;;;11.68;;
74309;SDS011;62722;51.142;17.052;2022-12-18T11:44:41;31.80;;;10.88;;
74309;SDS011;62722;51.142;17.052;2022-12-18T11:47:18;31.00;;;11.60;;
74309;SDS011;62722;51.142;17.052;2022-12-18T11:49:52;37.83;;;11.93;;
74309;SDS011;62722;51.142;17.052;2022-12-18T11:52:23;34.40;;;10.93;;
74309;SDS011;62722;51.142;17.052;2022-12-18T11:54:54;28.77;;;11.23;;
74309;SDS011;62722;51.142;17.052;2022-12-18T11:57:28;40.70;;;11.95;;
74309;SDS011;62722;51.142;17.052;2022-12-18T12:00:11;24.75;;;10.80;;
74309;SDS011;62722;51.142;17.052;2022-12-18T12:05:48;37.58;;;11.50;;
74309;SDS011;62722;51.142;17.052;2022-12-18T12:08:27;32.42;;;9.65;;
74309;SDS011;62722;51.142;17.052;2022-12-18T12:11:05;36.28;;;12.07;;
74309;SDS011;62722;51.142;17.052;2022-12-18T12:13:40;37.30;;;12.52;;
74309;SDS011;62722;51.142;17.052;2022-12-18T12:16:16;34.50;;;12.32;;
74309;SDS011;62722;51.142;17.052;2022-12-18T12:18:53;35.70;;;11.88;;
74309;SDS011;62722;51.142;17.052;2022-12-18T12:21:32;30.65;;;10.30;;
74309;SDS011;62722;51.142;17.052;2022-12-18T12:24:11;40.08;;;11.73;;
74309;SDS011;62722;51.142;17.052;2022-12-18T12:26:53;25.52;;;10.10;;
74309;SDS011;62722;51.142;17.052;2022-12-18T12:29:35;29.75;;;10.85;;
74309;SDS011;62722;51.142;17.052;2022-12-18T12:32:16;32.88;;;11.52;;
74309;SDS011;62722;51.142;17.052;2022-12-18T12:34:57;30.92;;;10.45;;
74309;SDS011;62722;51.142;17.052;2022-12-18T12:37:38;31.10;;;11.63;;
74309;SDS011;62722;51.142;17.052;2022-12-18T12:40:13;35.08;;;10.75;;
74309;SDS011;62722;51.142;17.052;2022-12-18T12:42:50;32.47;;;11.27;;
74309;SDS011;62722;51.142;17.052;2022-12-18T12:45:40;27.85;;;9.65;;
74309;SDS011;62722;51.142;17.052;2022-12-18T12:48:16;29.88;;;10.07;;
74309;SDS011;62722;51.142;17.052;2022-12-18T12:50:49;34.13;;;11.05;;
74309;SDS011;62722;51.142;17.052;2022-12-18T12:53:21;37.35;;;12.90;;
74309;SDS011;62722;51.142;17.052;2022-12-18T12:55:53;30.88;;;11.30;;
74309;SDS011;62722;51.142;17.052;2022-12-18T12:58:23;36.35;;;11.75;;
74309;SDS011;62722;51.142;17.052;2022-12-18T13:01:01;35.42;;;11.20;;
74309;SDS011;62722;51.142;17.052;2022-12-18T13:06:14;27.80;;;11.23;;
74309;SDS011;62722;51.142;17.052;2022-12-18T13:08:54;30.50;;;11.13;;
74309;SDS011;62722;51.142;17.052;2022-12-18T13:11:35;39.47;;;12.05;;
74309;SDS011;62722;51.142;17.052;2022-12-18T13:14:22;31.58;;;12.55;;
74309;SDS011;62722;51.142;17.052;2022-12-18T13:16:56;39.67;;;12.73;;
74309;SDS011;62722;51.142;17.052;2022-12-18T13:20:07;37.97;;;12.98;;
74309;SDS011;62722;51.142;17.052;2022-12-18T13:22:38;34.38;;;12.57;;
74309;SDS011;62722;51.142;17.052;2022-12-18T13:25:31;43.17;;;12.27;;
74309;SDS011;62722;51.142;17.052;2022-12-18T13:30:44;31.30;;;11.38;;
74309;SDS011;62722;51.142;17.052;2022-12-18T13:33:38;31.33;;;13.68;;
74309;SDS011;62722;51.142;17.052;2022-12-18T13:48:19;34.72;;;11.27;;
74309;SDS011;62722;51.142;17.052;2022-12-18T13:50:53;34.67;;;12.00;;
74309;SDS011;62722;51.142;17.052;2022-12-18T13:53:26;34.45;;;12.05;;
74309;SDS011;62722;51.142;17.052;2022-12-18T13:55:57;36.88;;;12.43;;
74309;SDS011;62722;51.142;17.052;2022-12-18T13:58:25;30.70;;;10.73;;
74309;SDS011;62722;51.142;17.052;2022-12-18T14:00:52;32.78;;;10.73;;
74309;SDS011;62722;51.142;17.052;2022-12-18T14:03:21;32.55;;;11.07;;
74309;SDS011;62722;51.142;17.052;2022-12-18T14:05:59;28.08;;;10.52;;
74309;SDS011;62722;51.142;17.052;2022-12-18T14:08:34;33.85;;;12.65;;
74309;SDS011;62722;51.142;17.052;2022-12-18T14:11:06;31.92;;;11.38;;
74309;SDS011;62722;51.142;17.052;2022-12-18T14:13:44;32.25;;;10.38;;
74309;SDS011;62722;51.142;17.052;2022-12-18T14:16:13;29.45;;;9.68;;
74309;SDS011;62722;51.142;17.052;2022-12-18T14:18:44;30.00;;;10.60;;
74309;SDS011;62722;51.142;17.052;2022-12-18T14:21:17;32.05;;;12.40;;
74309;SDS011;62722;51.142;17.052;2022-12-18T14:23:48;32.58;;;10.90;;
74309;SDS011;62722;51.142;17.052;2022-12-18T14:26:26;31.33;;;11.95;;
74309;SDS011;62722;51.142;17.052;2022-12-18T14:28:56;33.08;;;10.70;;
74309;SDS011;62722;51.142;17.052;2022-12-18T14:31:26;31.63;;;10.93;;
74309;SDS011;62722;51.142;17.052;2022-12-18T14:33:56;30.88;;;11.85;;
74309;SDS011;62722;51.142;17.052;2022-12-18T14:36:24;35.42;;;10.88;;
74309;SDS011;62722;51.142;17.052;2022-12-18T14:38:53;37.35;;;12.23;;
74309;SDS011;62722;51.142;17.052;2022-12-18T14:41:21;41.10;;;12.63;;
74309;SDS011;62722;51.142;17.052;2022-12-18T14:43:51;32.50;;;11.27;;
74309;SDS011;62722;51.142;17.052;2022-12-18T14:46:27;32.20;;;12.45;;
74309;SDS011;62722;51.142;17.052;2022-12-18T14:48:59;33.75;;;11.70;;
74309;SDS011;62722;51.142;17.052;2022-12-18T14:51:28;40.63;;;14.05;;
74309;SDS011;62722;51.142;17.052;2022-12-18T14:53:58;45.00;;;16.23;;
74309;SDS011;62722;51.142;17.052;2022-12-18T14:56:27;32.85;;;11.98;;
74309;SDS011;62722;51.142;17.052;2022-12-18T14:58:58;39.30;;;12.50;;
74309;SDS011;62722;51.142;17.052;2022-12-18T15:01:30;42.75;;;13.38;;
74309;SDS011;62722;51.142;17.052;2022-12-18T15:04:00;37.35;;;13.77;;
74309;SDS011;62722;51.142;17.052;2022-12-18T15:06:33;37.92;;;14.63;;
74309;SDS011;62722;51.142;17.052;2022-12-18T15:09:03;43.03;;;13.93;;